Time;durP1;ratioP1;P1;durP2;ratioP2;P2;SDS_P1;SDS_P2;PMS_P1;PMS_P2;Temp;Humidity;BMP_temperature;BMP_pressure;BME280_temperature;BME280_humidity;BME280_pressure;Samples;Min_cycle;Max_cycle;Signal;HPM_P1;HPM_P2
2021/08/24 00:01:05;;;;;;;11.30;7.53;;;19.50;99.70;;;;;;4093895;29;20051;-62
2021/08/24 00:03:06;;;;;;;8.35;7.05;;;19.50;99.50;;;;;;4095431;28;20109;-65
2021/08/24 00:05:24;;;;;;;8.45;6.53;;;19.50;99.40;;;;;;4094244;29;20039;-65
2021/08/24 00:07:26;;;;;;;8.30;6.38;;;19.50;99.50;;;;;;4109106;28;20051;-65
2021/08/24 00:09:28;;;;;;;8.75;6.88;;;19.40;99.40;;;;;;4093725;29;20925;-64
2021/08/24 00:11:33;;;;;;;10.30;6.95;;;19.40;99.50;;;;;;4094876;29;20086;-64
2021/08/24 00:13:34;;;;;;;12.20;7.32;;;19.30;99.60;;;;;;4093831;29;20502;-65
2021/08/24 00:15:35;;;;;;;8.25;7.32;;;19.30;99.80;;;;;;4096872;29;20776;-65
2021/08/24 00:17:37;;;;;;;9.32;7.20;;;19.20;99.80;;;;;;4093708;29;20031;-64
2021/08/24 00:19:38;;;;;;;7.95;6.13;;;19.20;99.90;;;;;;4094992;29;20015;-64
2021/08/24 00:21:40;;;;;;;10.15;7.50;;;19.20;99.90;;;;;;4094041;29;20035;-64
2021/08/24 00:23:41;;;;;;;16.73;7.20;;;19.20;99.90;;;;;;4094595;28;20027;-64
2021/08/24 00:25:43;;;;;;;11.55;7.40;;;19.20;99.90;;;;;;4094019;28;20086;-65
2021/08/24 00:27:44;;;;;;;9.00;6.13;;;19.20;99.90;;;;;;4095152;29;20039;-65
2021/08/24 00:29:45;;;;;;;11.27;6.65;;;19.20;99.90;;;;;;4094119;29;20093;-65
2021/08/24 00:31:46;;;;;;;7.20;6.28;;;19.30;99.90;;;;;;4094419;29;20554;-64
2021/08/24 00:33:47;;;;;;;9.93;6.60;;;19.30;99.90;;;;;;4093405;28;20050;-63
2021/08/24 00:35:48;;;;;;;10.85;7.10;;;19.30;99.90;;;;;;4094595;29;20514;-64
2021/08/24 00:37:49;;;;;;;9.73;7.43;;;19.30;99.90;;;;;;4094023;29;20057;-66
2021/08/24 00:39:51;;;;;;;9.40;7.30;;;19.30;99.90;;;;;;4093929;28;20039;-63
2021/08/24 00:41:52;;;;;;;11.00;7.80;;;19.30;99.90;;;;;;4094008;29;20028;-64
2021/08/24 00:43:54;;;;;;;10.90;6.47;;;19.30;99.90;;;;;;4093326;29;20023;-66
2021/08/24 00:46:02;;;;;;;12.50;7.22;;;19.30;99.90;;;;;;4094637;28;20102;-64
2021/08/24 00:48:05;;;;;;;10.05;6.53;;;19.30;99.90;;;;;;4093714;28;20086;-64
2021/08/24 00:50:26;;;;;;;7.70;6.50;;;19.30;99.90;;;;;;4116494;28;20023;-65
2021/08/24 00:52:27;;;;;;;8.05;6.88;;;19.30;99.90;;;;;;4077924;29;20032;-65
2021/08/24 00:54:28;;;;;;;8.68;6.90;;;19.30;99.90;;;;;;4079475;28;20039;-65
2021/08/24 00:56:31;;;;;;;7.30;6.10;;;19.30;99.90;;;;;;4088520;29;20051;-65
2021/08/24 00:58:32;;;;;;;10.00;6.40;;;19.30;99.90;;;;;;4094651;29;20047;-64
2021/08/24 01:00:34;;;;;;;10.38;6.50;;;19.30;99.90;;;;;;4093710;28;20122;-64
2021/08/24 01:02:35;;;;;;;9.80;6.70;;;19.30;99.90;;;;;;4094632;29;20535;-65
2021/08/24 01:04:37;;;;;;;8.80;6.60;;;19.30;99.90;;;;;;4092824;29;20039;-64
2021/08/24 01:06:49;;;;;;;8.02;6.60;;;19.30;99.90;;;;;;4094462;29;20035;-65
2021/08/24 01:08:50;;;;;;;8.45;7.45;;;19.30;99.90;;;;;;4092732;28;20023;-65
2021/08/24 01:11:15;;;;;;;8.15;6.60;;;19.40;99.90;;;;;;4094645;29;20082;-65
2021/08/24 01:13:42;;;;;;;8.80;7.22;;;19.30;99.90;;;;;;4092867;29;20090;-64
2021/08/24 01:16:06;;;;;;;9.30;6.68;;;19.30;99.90;;;;;;4093676;29;20027;-64
2021/08/24 01:18:10;;;;;;;7.53;6.07;;;19.30;99.90;;;;;;4077399;29;20146;-66
2021/08/24 01:20:38;;;;;;;9.65;7.03;;;19.30;99.90;;;;;;4079082;29;20079;-64
2021/08/24 01:23:21;;;;;;;7.35;6.20;;;19.40;99.90;;;;;;4087091;29;20606;-66
2021/08/24 01:25:38;;;;;;;9.65;6.72;;;19.40;99.90;;;;;;4079750;28;20047;-66
2021/08/24 01:28:01;;;;;;;9.85;6.55;;;19.40;99.90;;;;;;4093506;29;20039;-66
2021/08/24 01:30:18;;;;;;;11.38;6.60;;;19.30;99.90;;;;;;4092868;29;20082;-64
2021/08/24 01:32:29;;;;;;;8.48;6.53;;;19.30;99.90;;;;;;4093964;29;20031;-65
2021/08/24 01:34:38;;;;;;;8.95;6.40;;;19.30;99.90;;;;;;4123680;28;20105;-63
2021/08/24 01:36:55;;;;;;;11.20;6.55;;;19.30;99.90;;;;;;4093928;29;20039;-63
2021/08/24 01:39:02;;;;;;;9.45;7.07;;;19.30;99.90;;;;;;4092961;29;20064;-65
2021/08/24 01:41:12;;;;;;;8.75;6.15;;;19.30;99.90;;;;;;4093824;29;20424;-67
2021/08/24 01:43:19;;;;;;;10.02;6.80;;;19.30;99.90;;;;;;4091312;28;20125;-65
2021/08/24 01:45:38;;;;;;;8.95;6.43;;;19.30;99.90;;;;;;4094311;29;20031;-64
2021/08/24 01:47:42;;;;;;;11.38;7.30;;;19.30;99.90;;;;;;4092126;28;20094;-66
2021/08/24 01:50:09;;;;;;;8.15;6.70;;;19.20;99.90;;;;;;4094405;28;20035;-66
2021/08/24 01:52:15;;;;;;;10.68;7.35;;;19.20;99.90;;;;;;4092706;29;20043;-66
2021/08/24 01:54:24;;;;;;;11.45;7.43;;;19.10;99.90;;;;;;4094440;28;20094;-66
2021/08/24 01:56:31;;;;;;;12.57;7.00;;;19.10;99.90;;;;;;4091690;29;20035;-65
2021/08/24 01:58:47;;;;;;;7.95;6.47;;;19.10;99.90;;;;;;4093752;29;20027;-63
2021/08/24 02:00:53;;;;;;;12.48;6.68;;;19.00;99.90;;;;;;4092810;29;20141;-65
2021/08/24 02:03:00;;;;;;;13.18;7.05;;;19.00;99.90;;;;;;4093090;29;20447;-64
2021/08/24 02:05:23;;;;;;;8.52;7.20;;;18.90;99.90;;;;;;4092592;28;20102;-64
2021/08/24 02:07:28;;;;;;;7.85;7.03;;;18.90;99.90;;;;;;4093602;29;20431;-64
2021/08/24 02:09:35;;;;;;;18.90;8.48;;;18.90;99.90;;;;;;4092398;29;20035;-65
2021/08/24 02:11:37;;;;;;;11.00;7.65;;;18.90;99.90;;;;;;4107831;28;20093;-66
2021/08/24 02:13:46;;;;;;;11.77;7.45;;;18.90;99.90;;;;;;4092200;29;20435;-65
2021/08/24 02:15:54;;;;;;;10.15;7.07;;;18.90;99.90;;;;;;4093496;29;20094;-64
2021/08/24 02:17:58;;;;;;;12.48;7.68;;;18.90;99.90;;;;;;4092305;28;20598;-64
2021/08/24 02:20:25;;;;;;;9.70;7.03;;;18.80;99.90;;;;;;4092992;28;20031;-65
2021/08/24 02:22:31;;;;;;;9.18;7.32;;;18.80;99.90;;;;;;4092298;29;20110;-66
2021/08/24 02:24:42;;;;;;;10.82;7.45;;;18.80;99.90;;;;;;4093529;29;20024;-65
2021/08/24 02:26:46;;;;;;;10.15;7.55;;;18.80;99.90;;;;;;4092474;29;20083;-64
2021/08/24 02:28:51;;;;;;;11.73;7.63;;;18.70;99.90;;;;;;4093455;29;20098;-65
2021/08/24 02:31:03;;;;;;;14.25;8.00;;;18.70;99.90;;;;;;4092387;28;20035;-63
2021/08/24 02:33:05;;;;;;;9.35;8.35;;;18.70;99.90;;;;;;4093113;29;20035;-67
2021/08/24 02:35:22;;;;;;;12.55;8.70;;;18.70;99.90;;;;;;4091815;29;20031;-65
2021/08/24 02:37:40;;;;;;;10.82;7.75;;;18.80;99.90;;;;;;4092725;29;20101;-64
2021/08/24 02:40:12;;;;;;;13.63;10.60;;;18.70;99.90;;;;;;4092237;29;20035;-64
2021/08/24 02:42:24;;;;;;;11.05;7.90;;;18.70;99.90;;;;;;4093273;29;20031;-64
2021/08/24 02:44:37;;;;;;;10.13;7.70;;;18.70;99.90;;;;;;4091800;29;20035;-65
2021/08/24 02:46:45;;;;;;;7.78;6.97;;;18.70;99.90;;;;;;4093080;29;20098;-64
2021/08/24 02:48:54;;;;;;;13.20;8.48;;;18.70;99.90;;;;;;4092057;29;20424;-67
2021/08/24 02:50:55;;;;;;;10.52;7.38;;;18.70;99.90;;;;;;4093068;29;20472;-63
2021/08/24 02:52:57;;;;;;;15.30;7.45;;;18.70;99.90;;;;;;4092297;28;20039;-65
2021/08/24 02:55:00;;;;;;;8.48;7.20;;;18.70;99.90;;;;;;4092322;28;20043;-64
2021/08/24 02:57:01;;;;;;;8.27;6.95;;;18.70;99.90;;;;;;4092046;28;20047;-63
2021/08/24 02:59:02;;;;;;;12.63;7.75;;;18.70;99.90;;;;;;4092892;29;20539;-65
2021/08/24 03:01:03;;;;;;;10.68;7.93;;;18.70;99.90;;;;;;4091441;29;20051;-65
2021/08/24 03:03:05;;;;;;;11.60;7.82;;;18.80;99.90;;;;;;4092715;28;20035;-66
2021/08/24 03:05:07;;;;;;;10.43;7.55;;;18.80;99.90;;;;;;4091359;28;20063;-65
2021/08/24 03:07:29;;;;;;;8.13;7.32;;;18.80;99.90;;;;;;4092379;28;20079;-66
2021/08/24 03:09:34;;;;;;;10.00;7.45;;;18.90;99.90;;;;;;4091707;29;20078;-63
2021/08/24 03:11:41;;;;;;;16.13;8.02;;;18.80;99.90;;;;;;4092801;29;20043;-65
2021/08/24 03:13:58;;;;;;;10.25;7.45;;;18.80;99.90;;;;;;4091621;29;20027;-66
2021/08/24 03:16:06;;;;;;;9.65;7.47;;;18.80;99.90;;;;;;4092269;29;20035;-67
2021/08/24 03:18:31;;;;;;;11.18;7.65;;;18.80;99.90;;;;;;4091860;28;20746;-67
2021/08/24 03:20:37;;;;;;;11.07;7.30;;;18.80;99.90;;;;;;4086739;29;20982;-65
2021/08/24 03:22:40;;;;;;;10.68;7.38;;;18.70;99.90;;;;;;4091156;29;20848;-65
2021/08/24 03:24:42;;;;;;;15.40;7.00;;;18.70;99.90;;;;;;4093140;28;20048;-67
2021/08/24 03:26:46;;;;;;;8.77;6.78;;;18.70;99.90;;;;;;4091897;29;20059;-67
2021/08/24 03:28:47;;;;;;;9.30;6.80;;;18.70;99.90;;;;;;4092320;29;20023;-67
2021/08/24 03:30:49;;;;;;;8.13;6.13;;;18.80;99.90;;;;;;4091823;28;20027;-63
2021/08/24 03:32:52;;;;;;;9.25;6.88;;;18.70;99.90;;;;;;4094484;29;20098;-65
2021/08/24 03:34:53;;;;;;;9.70;6.88;;;18.70;99.90;;;;;;4095426;29;20066;-65
2021/08/24 03:36:54;;;;;;;12.68;7.57;;;18.70;99.90;;;;;;4094698;29;20122;-65
2021/08/24 03:38:56;;;;;;;8.40;6.30;;;18.80;99.90;;;;;;4095925;29;20090;-67
2021/08/24 03:40:57;;;;;;;8.80;6.32;;;18.80;99.90;;;;;;4094004;29;20063;-64
2021/08/24 03:42:58;;;;;;;13.82;6.53;;;18.90;99.90;;;;;;4095699;29;20035;-65
2021/08/24 03:45:00;;;;;;;9.80;6.38;;;18.90;99.90;;;;;;4094032;29;20023;-67
2021/08/24 03:47:01;;;;;;;9.90;6.30;;;18.90;99.90;;;;;;4095919;29;20436;-67
2021/08/24 03:49:02;;;;;;;7.20;5.60;;;18.90;99.90;;;;;;4093232;29;20098;-65
2021/08/24 03:51:04;;;;;;;9.05;6.78;;;19.00;99.90;;;;;;4096268;28;20039;-66
2021/08/24 03:53:05;;;;;;;9.90;6.57;;;19.00;99.90;;;;;;4093900;28;20558;-65
2021/08/24 03:55:07;;;;;;;15.27;6.40;;;19.00;99.90;;;;;;4095426;28;20047;-64
2021/08/24 03:57:08;;;;;;;12.60;7.07;;;19.00;99.90;;;;;;4093957;28;20106;-64
2021/08/24 03:59:10;;;;;;;15.98;6.68;;;19.10;99.90;;;;;;4095558;28;20091;-65
2021/08/24 04:01:14;;;;;;;13.85;6.30;;;19.10;99.90;;;;;;4091145;29;20031;-64
2021/08/24 04:03:15;;;;;;;10.23;6.68;;;19.10;99.90;;;;;;4093410;29;20027;-66
2021/08/24 04:05:17;;;;;;;11.65;6.45;;;19.10;99.90;;;;;;4094738;29;20035;-66
2021/08/24 04:07:18;;;;;;;7.20;6.18;;;19.10;99.90;;;;;;4094458;29;20475;-64
2021/08/24 04:09:19;;;;;;;8.13;6.78;;;19.20;99.90;;;;;;4094880;29;20039;-65
2021/08/24 04:11:20;;;;;;;9.40;6.28;;;19.30;99.90;;;;;;4094063;29;20069;-64
2021/08/24 04:13:22;;;;;;;8.85;6.22;;;19.40;99.90;;;;;;4095628;28;20043;-65
2021/08/24 04:15:23;;;;;;;13.93;6.50;;;19.40;99.90;;;;;;4092922;29;20066;-65
2021/08/24 04:17:24;;;;;;;7.72;6.05;;;19.50;99.90;;;;;;4094419;29;20094;-62
2021/08/24 04:19:25;;;;;;;12.00;7.32;;;19.60;99.90;;;;;;4093141;29;20035;-63
2021/08/24 04:21:26;;;;;;;7.53;6.00;;;19.80;99.90;;;;;;4094965;29;20921;-64
2021/08/24 04:23:28;;;;;;;8.30;6.35;;;19.90;99.90;;;;;;4093030;29;20435;-64
2021/08/24 04:25:29;;;;;;;12.35;6.53;;;20.00;99.90;;;;;;4094899;29;20106;-64
2021/08/24 04:27:30;;;;;;;8.75;6.32;;;20.10;99.90;;;;;;4093816;29;20035;-67
2021/08/24 04:29:32;;;;;;;10.50;6.20;;;20.00;99.90;;;;;;4093925;29;20085;-66
2021/08/24 04:31:38;;;;;;;8.43;6.32;;;20.00;99.90;;;;;;4093017;28;20079;-67
2021/08/24 04:33:40;;;;;;;9.95;6.63;;;20.00;99.90;;;;;;4092639;28;20094;-66
2021/08/24 04:35:41;;;;;;;7.20;6.03;;;20.00;99.90;;;;;;4093300;29;20047;-67
2021/08/24 04:37:42;;;;;;;7.18;6.18;;;19.90;99.90;;;;;;4094014;29;20051;-66
2021/08/24 04:39:43;;;;;;;9.60;6.22;;;19.80;99.90;;;;;;4093988;29;20027;-68
2021/08/24 04:41:44;;;;;;;8.95;6.78;;;19.80;99.90;;;;;;4108232;28;20031;-66
2021/08/24 04:43:46;;;;;;;7.40;6.00;;;19.80;99.90;;;;;;4093161;28;20035;-67
2021/08/24 04:45:47;;;;;;;12.15;6.70;;;19.80;99.90;;;;;;4093779;29;20098;-67
2021/08/24 04:47:49;;;;;;;8.00;6.28;;;19.80;99.90;;;;;;4094221;29;20051;-67
2021/08/24 04:49:50;;;;;;;12.15;6.07;;;19.80;99.90;;;;;;4093364;29;20059;-66
2021/08/24 04:51:51;;;;;;;13.10;6.50;;;19.70;99.90;;;;;;4082448;28;20673;-67
2021/08/24 04:53:52;;;;;;;8.23;6.00;;;19.70;99.90;;;;;;4091652;28;20560;-68
2021/08/24 04:55:53;;;;;;;7.68;5.25;;;19.60;99.90;;;;;;4092037;28;20036;-68
2021/08/24 04:57:55;;;;;;;7.97;5.95;;;19.60;99.90;;;;;;4090231;28;20059;-68
2021/08/24 04:59:56;;;;;;;8.05;6.55;;;19.60;99.90;;;;;;4107769;28;20042;-66
2021/08/24 05:01:57;;;;;;;11.40;6.10;;;19.50;99.90;;;;;;4086131;28;20047;-67
2021/08/24 05:03:58;;;;;;;8.50;6.22;;;19.50;99.90;;;;;;4092046;29;20039;-68
2021/08/24 05:05:59;;;;;;;11.27;6.30;;;19.50;99.90;;;;;;4092044;28;20099;-68
2021/08/24 05:08:00;;;;;;;9.90;6.28;;;19.40;99.90;;;;;;4092041;28;20105;-67
2021/08/24 05:10:03;;;;;;;10.98;6.57;;;19.40;99.90;;;;;;4091476;29;20034;-67
2021/08/24 05:12:05;;;;;;;9.20;6.10;;;19.40;99.90;;;;;;4086753;28;20114;-67
2021/08/24 05:14:06;;;;;;;10.60;6.50;;;19.40;99.90;;;;;;4092363;29;20090;-67
2021/08/24 05:16:09;;;;;;;10.25;6.70;;;19.40;99.90;;;;;;4091598;28;20054;-66
2021/08/24 05:18:10;;;;;;;14.57;6.90;;;19.30;99.90;;;;;;4090427;28;20030;-66
2021/08/24 05:20:11;;;;;;;9.73;6.63;;;19.40;99.90;;;;;;4091955;28;20515;-66
2021/08/24 05:22:12;;;;;;;8.75;6.40;;;19.40;99.90;;;;;;4093675;29;20086;-66
2021/08/24 05:24:13;;;;;;;13.52;7.30;;;19.50;99.90;;;;;;4091067;29;20106;-62
2021/08/24 05:26:17;;;;;;;8.15;6.40;;;19.60;99.90;;;;;;4093878;28;20043;-64
2021/08/24 05:28:18;;;;;;;11.75;7.13;;;19.60;99.90;;;;;;4092770;29;20102;-64
2021/08/24 05:30:23;;;;;;;9.30;6.30;;;19.60;99.90;;;;;;4093612;29;20047;-64
2021/08/24 05:32:24;;;;;;;9.27;6.10;;;19.50;99.90;;;;;;4092142;29;20031;-63
2021/08/24 05:34:25;;;;;;;13.32;6.65;;;19.40;99.90;;;;;;4093890;28;20043;-65
2021/08/24 05:36:26;;;;;;;12.98;7.28;;;19.40;99.90;;;;;;4093323;28;20035;-64
2021/08/24 05:38:29;;;;;;;11.88;6.80;;;19.40;99.90;;;;;;4093583;28;20054;-64
2021/08/24 05:40:30;;;;;;;12.02;6.53;;;19.40;99.90;;;;;;4092841;29;20027;-65
2021/08/24 05:42:31;;;;;;;10.48;6.90;;;19.40;99.90;;;;;;4092750;29;20027;-63
2021/08/24 05:44:32;;;;;;;11.32;6.25;;;19.40;99.90;;;;;;4093777;28;20098;-64
2021/08/24 05:46:34;;;;;;;16.70;7.30;;;19.40;99.90;;;;;;4092676;28;20550;-63
2021/08/24 05:48:37;;;;;;;7.50;6.00;;;19.40;99.90;;;;;;4093406;28;20087;-64
2021/08/24 05:50:40;;;;;;;10.52;6.25;;;19.40;99.90;;;;;;4092405;28;20094;-64
2021/08/24 05:52:42;;;;;;;7.65;6.20;;;19.30;99.90;;;;;;4093942;29;20031;-64
2021/08/24 05:54:43;;;;;;;9.80;7.03;;;19.30;99.90;;;;;;4091990;28;20055;-63
2021/08/24 05:56:46;;;;;;;15.93;8.18;;;19.20;99.90;;;;;;4093218;29;20082;-66
2021/08/24 05:58:48;;;;;;;12.55;6.85;;;19.20;99.90;;;;;;4092424;29;20034;-64
2021/08/24 06:00:49;;;;;;;11.80;8.52;;;19.10;99.90;;;;;;4093808;29;20023;-66
2021/08/24 06:02:50;;;;;;;8.95;6.80;;;19.00;99.90;;;;;;4091936;28;20090;-64
2021/08/24 06:04:52;;;;;;;7.57;6.28;;;18.90;99.90;;;;;;4093465;29;20456;-64
2021/08/24 06:06:54;;;;;;;11.75;7.53;;;18.90;99.90;;;;;;4092729;29;20430;-65
2021/08/24 06:08:56;;;;;;;13.02;8.60;;;18.90;99.90;;;;;;4093200;28;20067;-64
2021/08/24 06:10:57;;;;;;;10.90;8.15;;;18.80;99.90;;;;;;4092210;28;20043;-64
2021/08/24 06:12:58;;;;;;;9.38;6.85;;;18.70;99.90;;;;;;4092972;28;20110;-64
2021/08/24 06:14:59;;;;;;;9.50;7.13;;;18.70;99.90;;;;;;4092978;28;20039;-65
2021/08/24 06:17:01;;;;;;;10.50;7.40;;;18.70;99.90;;;;;;4092465;28;20050;-64
2021/08/24 06:19:02;;;;;;;14.55;8.45;;;18.80;99.90;;;;;;4093083;29;20074;-65
2021/08/24 06:21:03;;;;;;;14.48;9.45;;;18.70;99.90;;;;;;4092618;29;20031;-65
2021/08/24 06:23:04;;;;;;;10.48;8.57;;;18.70;99.90;;;;;;4093489;29;20046;-65
2021/08/24 06:25:06;;;;;;;7.72;6.47;;;18.80;99.90;;;;;;4091896;29;20039;-65
2021/08/24 06:27:07;;;;;;;13.68;8.95;;;18.90;99.90;;;;;;4093028;29;20068;-65
2021/08/24 06:29:09;;;;;;;17.10;10.90;;;18.90;99.90;;;;;;4092235;29;20035;-64
2021/08/24 06:31:16;;;;;;;15.52;11.00;;;18.90;99.90;;;;;;4093278;29;20102;-64
2021/08/24 06:33:19;;;;;;;10.75;8.35;;;18.90;99.90;;;;;;4091718;29;20468;-66
2021/08/24 06:35:22;;;;;;;10.98;7.30;;;18.90;99.90;;;;;;4093167;28;20558;-65
2021/08/24 06:37:23;;;;;;;9.25;7.30;;;18.90;99.90;;;;;;4091779;29;20027;-65
2021/08/24 06:39:24;;;;;;;10.18;7.82;;;18.90;99.90;;;;;;4092800;29;20468;-65
2021/08/24 06:41:25;;;;;;;8.70;7.55;;;18.90;99.90;;;;;;4092316;28;20047;-64
2021/08/24 06:43:27;;;;;;;8.27;7.05;;;18.80;99.90;;;;;;4093366;28;20039;-65
2021/08/24 06:45:30;;;;;;;7.97;6.30;;;18.90;99.90;;;;;;4092417;29;20028;-65
2021/08/24 06:47:31;;;;;;;7.68;6.55;;;18.90;99.90;;;;;;4091629;29;20035;-65
2021/08/24 06:49:32;;;;;;;10.65;6.97;;;18.80;99.90;;;;;;4092786;28;20066;-65
2021/08/24 06:51:34;;;;;;;9.95;6.68;;;18.80;99.90;;;;;;4091988;29;20035;-65
2021/08/24 06:53:37;;;;;;;10.05;6.60;;;18.90;99.90;;;;;;4093354;28;20055;-65
2021/08/24 06:55:39;;;;;;;16.40;10.10;;;18.90;99.90;;;;;;4091786;28;20043;-66
2021/08/24 06:57:41;;;;;;;18.35;10.27;;;18.90;99.90;;;;;;4092420;29;20039;-65
2021/08/24 06:59:42;;;;;;;26.27;16.13;;;18.90;99.90;;;;;;4090964;29;20043;-64
2021/08/24 07:01:44;;;;;;;18.08;11.98;;;19.00;99.90;;;;;;4092548;29;20093;-65
2021/08/24 07:03:45;;;;;;;11.05;7.90;;;19.10;99.90;;;;;;4091785;29;20063;-65
2021/08/24 07:05:51;;;;;;;9.80;6.63;;;19.10;99.90;;;;;;4107048;28;20404;-65
2021/08/24 07:07:53;;;;;;;9.25;6.10;;;19.10;99.90;;;;;;4094820;28;20047;-65
2021/08/24 07:09:54;;;;;;;7.05;6.22;;;19.20;99.90;;;;;;4096106;28;20098;-65
2021/08/24 07:11:55;;;;;;;9.95;8.52;;;19.20;99.90;;;;;;4094410;29;20094;-65
2021/08/24 07:13:59;;;;;;;6.75;5.88;;;19.20;99.90;;;;;;4095284;29;20401;-64
2021/08/24 07:16:00;;;;;;;7.97;5.93;;;19.20;99.90;;;;;;4094423;29;20023;-65
2021/08/24 07:18:02;;;;;;;10.15;6.72;;;19.10;99.90;;;;;;4095315;28;20055;-64
2021/08/24 07:20:05;;;;;;;8.98;5.60;;;19.10;99.90;;;;;;4094923;29;20043;-65
2021/08/24 07:22:06;;;;;;;10.40;8.27;;;19.10;99.90;;;;;;4095211;29;20035;-64
2021/08/24 07:24:07;;;;;;;10.50;6.70;;;19.10;99.90;;;;;;4095016;29;20535;-65
2021/08/24 07:26:09;;;;;;;7.40;6.35;;;19.20;99.90;;;;;;4094421;29;20070;-64
2021/08/24 07:28:11;;;;;;;9.57;5.72;;;19.20;99.90;;;;;;4095706;28;20138;-64
2021/08/24 07:30:13;;;;;;;7.20;6.30;;;19.20;99.90;;;;;;4094348;29;20039;-64
2021/08/24 07:32:14;;;;;;;7.88;5.85;;;19.30;99.90;;;;;;4095658;29;20097;-65
2021/08/24 07:34:16;;;;;;;7.65;6.60;;;19.40;99.90;;;;;;4094675;28;20043;-64
2021/08/24 07:36:17;;;;;;;9.43;6.80;;;19.40;99.90;;;;;;4095655;29;20546;-64
2021/08/24 07:38:18;;;;;;;9.90;7.32;;;19.40;99.90;;;;;;4094127;29;20090;-63
2021/08/24 07:40:19;;;;;;;8.52;6.25;;;19.50;99.90;;;;;;4095218;29;20039;-64
2021/08/24 07:42:21;;;;;;;8.98;5.45;;;19.50;99.90;;;;;;4094358;28;20494;-64
2021/08/24 07:44:30;;;;;;;6.18;5.05;;;19.50;99.90;;;;;;4095363;29;20035;-64
2021/08/24 07:46:32;;;;;;;11.20;5.80;;;19.50;99.90;;;;;;4094106;29;20023;-65
2021/08/24 07:48:34;;;;;;;12.98;9.00;;;19.50;99.90;;;;;;4095098;28;20118;-65
2021/08/24 07:50:35;;;;;;;13.68;7.60;;;19.60;99.90;;;;;;4094714;28;20086;-65
2021/08/24 07:52:36;;;;;;;9.75;6.95;;;19.60;99.90;;;;;;4095076;29;20031;-64
2021/08/24 07:54:38;;;;;;;8.60;5.65;;;19.60;99.90;;;;;;4094744;29;20035;-65
2021/08/24 07:56:39;;;;;;;6.80;6.10;;;19.60;99.90;;;;;;4094445;28;20803;-64
2021/08/24 07:58:40;;;;;;;9.15;6.00;;;19.60;99.90;;;;;;4094672;28;20047;-65
2021/08/24 08:00:41;;;;;;;9.15;5.70;;;19.50;99.90;;;;;;4093676;28;20043;-65
2021/08/24 08:02:42;;;;;;;9.05;5.90;;;19.50;99.90;;;;;;4094500;29;20490;-65
2021/08/24 08:04:44;;;;;;;11.68;6.00;;;19.50;99.90;;;;;;4093588;29;20093;-66
2021/08/24 08:06:46;;;;;;;11.63;7.22;;;19.60;99.90;;;;;;4095011;29;20502;-65
2021/08/24 08:08:47;;;;;;;8.63;6.13;;;19.60;99.90;;;;;;4093682;29;20031;-65
2021/08/24 08:10:48;;;;;;;8.15;6.15;;;19.60;99.90;;;;;;4094929;29;20737;-64
2021/08/24 08:12:49;;;;;;;10.93;6.45;;;19.60;99.90;;;;;;4093834;28;20047;-64
2021/08/24 08:14:50;;;;;;;9.73;5.97;;;19.60;99.90;;;;;;4094950;29;20090;-65
2021/08/24 08:16:52;;;;;;;13.95;6.72;;;19.70;99.90;;;;;;4093520;28;20083;-64
2021/08/24 08:18:53;;;;;;;8.32;6.30;;;19.80;99.90;;;;;;4094661;29;20051;-64
2021/08/24 08:20:54;;;;;;;8.00;5.72;;;19.80;99.90;;;;;;4093617;29;20026;-64
2021/08/24 08:22:55;;;;;;;10.65;6.57;;;19.90;99.90;;;;;;4094875;28;20401;-64
2021/08/24 08:24:56;;;;;;;12.00;6.93;;;20.00;99.90;;;;;;4093815;29;20893;-64
2021/08/24 08:26:57;;;;;;;10.50;6.75;;;20.10;99.90;;;;;;4094134;28;20047;-64
2021/08/24 08:29:03;;;;;;;57.20;19.00;;;20.10;99.90;;;;;;4094103;29;20117;-64
2021/08/24 08:31:04;;;;;;;28.48;11.25;;;20.10;99.90;;;;;;4107708;28;20101;-65
2021/08/24 08:33:06;;;;;;;12.85;7.13;;;20.20;99.90;;;;;;4094761;29;20031;-64
2021/08/24 08:35:09;;;;;;;13.57;7.80;;;20.10;99.90;;;;;;4108128;28;20086;-64
2021/08/24 08:37:12;;;;;;;11.73;8.07;;;20.20;99.90;;;;;;4094851;28;20129;-64
2021/08/24 08:39:14;;;;;;;9.05;6.18;;;20.30;99.90;;;;;;4093039;28;20051;-65
2021/08/24 08:41:22;;;;;;;11.70;7.70;;;20.30;99.90;;;;;;4094583;29;20027;-64
2021/08/24 08:43:47;;;;;;;11.80;8.05;;;20.40;99.90;;;;;;4091996;28;20050;-65
2021/08/24 08:45:51;;;;;;;13.32;8.38;;;20.40;99.90;;;;;;4094741;29;20047;-65
2021/08/24 08:48:27;;;;;;;14.90;6.07;;;20.50;99.90;;;;;;4092038;28;20047;-66
2021/08/24 08:50:36;;;;;;;11.55;7.03;;;20.60;99.90;;;;;;4082410;28;20075;-66
2021/08/24 08:52:57;;;;;;;8.55;5.97;;;20.60;99.90;;;;;;4093696;28;20090;-65
2021/08/24 08:55:02;;;;;;;7.80;6.40;;;20.60;99.90;;;;;;4094157;28;20039;-65
2021/08/24 08:57:10;;;;;;;8.70;6.60;;;20.60;99.90;;;;;;4093292;28;20094;-66
2021/08/24 08:59:37;;;;;;;7.93;6.15;;;20.60;99.90;;;;;;4093803;29;20125;-64
2021/08/24 09:02:08;;;;;;;8.77;6.72;;;20.60;99.90;;;;;;4090294;29;20103;-64
2021/08/24 09:04:24;;;;;;;13.15;6.90;;;20.50;99.90;;;;;;4093178;29;20518;-64
2021/08/24 09:06:27;;;;;;;9.57;6.55;;;20.50;99.90;;;;;;4093604;29;20031;-65
2021/08/24 09:08:29;;;;;;;8.98;6.05;;;20.30;99.90;;;;;;4092773;29;20118;-65
2021/08/24 09:10:49;;;;;;;10.50;6.63;;;20.10;99.90;;;;;;4093458;29;20475;-65
2021/08/24 09:13:00;;;;;;;7.03;6.32;;;20.00;99.90;;;;;;4093003;28;20051;-64
2021/08/24 09:15:05;;;;;;;7.88;6.63;;;20.00;99.90;;;;;;4093628;29;20035;-65
2021/08/24 09:17:31;;;;;;;10.30;7.22;;;19.90;99.90;;;;;;4092500;29;20031;-64
2021/08/24 09:19:52;;;;;;;8.18;6.75;;;19.80;99.90;;;;;;4092272;28;20087;-62
2021/08/24 09:21:54;;;;;;;10.88;7.88;;;19.70;99.90;;;;;;4093424;28;20098;-64
2021/08/24 09:24:00;;;;;;;9.35;7.80;;;19.60;99.90;;;;;;4093403;29;20082;-65
2021/08/24 09:26:26;;;;;;;8.93;7.10;;;19.50;99.90;;;;;;4092170;28;20140;-65
2021/08/24 09:28:30;;;;;;;7.93;6.53;;;19.50;99.90;;;;;;4093794;28;20494;-65
2021/08/24 09:30:31;;;;;;;10.23;8.38;;;19.40;99.90;;;;;;4092297;28;20047;-65
2021/08/24 09:32:33;;;;;;;12.43;9.27;;;19.40;99.90;;;;;;4093498;29;20523;-66
2021/08/24 09:34:37;;;;;;;11.63;8.27;;;19.30;99.90;;;;;;4092656;28;20035;-66
2021/08/24 09:36:38;;;;;;;10.65;7.25;;;19.30;99.90;;;;;;4092945;29;20487;-64
2021/08/24 09:39:06;;;;;;;11.55;7.97;;;19.20;99.90;;;;;;4092683;29;20101;-65
2021/08/24 09:41:22;;;;;;;13.20;8.90;;;19.20;99.90;;;;;;4091470;28;20443;-65
2021/08/24 09:43:36;;;;;;;10.52;7.05;;;19.20;99.90;;;;;;4092092;29;20562;-65
2021/08/24 09:45:37;;;;;;;11.20;6.95;;;19.20;99.90;;;;;;4093350;28;20113;-65
2021/08/24 09:47:39;;;;;;;8.20;6.03;;;19.20;99.90;;;;;;4091809;29;20030;-65
2021/08/24 09:49:41;;;;;;;13.90;7.72;;;19.30;99.90;;;;;;4093227;29;20035;-65
2021/08/24 09:51:52;;;;;;;7.47;6.60;;;19.30;99.90;;;;;;4092565;29;20464;-65
2021/08/24 09:53:57;;;;;;;8.20;6.60;;;19.20;99.90;;;;;;4093273;29;20082;-67
2021/08/24 09:56:01;;;;;;;8.35;6.50;;;19.20;99.90;;;;;;4093085;28;20031;-65
2021/08/24 09:58:07;;;;;;;9.25;5.40;;;19.20;99.90;;;;;;4092565;29;20027;-65
2021/08/24 10:00:38;;;;;;;8.35;6.30;;;19.20;99.90;;;;;;4093005;28;20098;-64
2021/08/24 10:02:45;;;;;;;13.18;6.68;;;19.30;99.90;;;;;;4093134;28;20094;-64
2021/08/24 10:04:51;;;;;;;13.43;9.02;;;19.30;99.90;;;;;;4092504;29;20443;-66
2021/08/24 10:07:02;;;;;;;11.02;7.70;;;19.30;99.90;;;;;;4091425;28;20076;-65
2021/08/24 10:09:16;;;;;;;11.10;8.98;;;19.30;99.90;;;;;;4092152;29;20047;-65
2021/08/24 10:11:31;;;;;;;10.85;8.90;;;19.30;99.90;;;;;;4093015;29;20052;-67
2021/08/24 10:13:38;;;;;;;12.13;8.65;;;19.40;99.90;;;;;;4091924;29;20472;-63
2021/08/24 10:15:40;;;;;;;13.50;9.88;;;19.40;99.90;;;;;;4092628;29;20035;-64
2021/08/24 10:17:43;;;;;;;14.23;9.40;;;19.40;99.90;;;;;;4091869;29;20432;-65
2021/08/24 10:19:44;;;;;;;11.55;9.52;;;19.40;99.90;;;;;;4092653;28;20867;-65
2021/08/24 10:22:04;;;;;;;14.75;9.20;;;19.50;99.90;;;;;;4092535;29;20078;-65
2021/08/24 10:24:08;;;;;;;10.10;7.68;;;19.50;99.90;;;;;;4092489;29;20066;-63
2021/08/24 10:26:23;;;;;;;9.25;7.72;;;19.50;99.90;;;;;;4092486;28;20082;-65
2021/08/24 10:28:28;;;;;;;15.88;10.18;;;19.50;99.90;;;;;;4092352;28;20093;-66
2021/08/24 10:30:47;;;;;;;13.20;8.18;;;19.40;99.90;;;;;;4092252;28;20047;-66
2021/08/24 10:32:57;;;;;;;10.77;8.52;;;19.50;99.90;;;;;;4092083;29;20035;-64
2021/08/24 10:35:07;;;;;;;9.30;8.02;;;19.40;99.90;;;;;;4092393;28;20050;-64
2021/08/24 10:37:23;;;;;;;;;;;19.40;99.90;;;;;;4093143;29;20894;-65
2021/08/24 10:39:30;;;;;;;13.88;8.60;;;19.40;99.90;;;;;;4091521;29;20688;-67
2021/08/24 10:41:31;;;;;;;9.70;7.68;;;19.40;99.90;;;;;;4091662;29;20035;-65
2021/08/24 10:43:32;;;;;;;11.55;7.90;;;19.40;99.90;;;;;;4091856;29;20031;-64
2021/08/24 10:45:36;;;;;;;14.65;8.13;;;19.40;99.90;;;;;;4092044;29;20039;-63
2021/08/24 10:47:50;;;;;;;12.85;8.80;;;19.40;99.90;;;;;;4092014;29;20057;-65